Terminal Aerodrome Forecast
Issued by NWS

Home | Current Version | Previous Version | Text Only | Print | Product List | Glossary On
Versions: 1 2 3 4 5 6 7 8 9 10 11 12 13
000
FTUS43 KDTX 071509 AAA
TAFMBS
TAF AMD
KMBS 071509Z 0715/0812 34012G20KT P6SM SCT008 BKN012 OVC020
      TEMPO 0715/0716 2SM -SHRA BKN008 BKN012 OVC020
     FM071600 34012G20KT 3SM BR BKN008 BKN015 OVC040
     FM071700 36012KT P6SM BKN022 BKN040
     FM071900 36012KT P6SM BKN040
     FM072200 35006KT P6SM SKC=

USA.gov is the U.S. government's official web portal to all federal, state and local government web resources and services.